sensor_id;sensor_type;location;lat;lon;timestamp;pressure;altitude;pressure_sealevel;temperature
40968;BMP280;57377;45.130;6.038;2023-04-24T00:00:32;92112.09;;;10.47
40968;BMP280;57377;45.130;6.038;2023-04-24T00:02:57;92103.59;;;10.55
40968;BMP280;57377;45.130;6.038;2023-04-24T00:05:23;92115.72;;;10.38
40968;BMP280;57377;45.130;6.038;2023-04-24T00:07:49;92119.59;;;10.49
40968;BMP280;57377;45.130;6.038;2023-04-24T00:10:17;92120.19;;;10.67
40968;BMP280;57377;45.130;6.038;2023-04-24T00:12:43;92119.84;;;10.82
40968;BMP280;57377;45.130;6.038;2023-04-24T00:15:09;92112.91;;;10.78
40968;BMP280;57377;45.130;6.038;2023-04-24T00:17:34;92109.53;;;11.59
40968;BMP280;57377;45.130;6.038;2023-04-24T00:20:00;92107.69;;;11.59
40968;BMP280;57377;45.130;6.038;2023-04-24T00:22:27;92106.69;;;11.77
40968;BMP280;57377;45.130;6.038;2023-04-24T00:24:53;92106.16;;;11.50
40968;BMP280;57377;45.130;6.038;2023-04-24T00:27:18;92112.31;;;11.62
40968;BMP280;57377;45.130;6.038;2023-04-24T00:29:44;92096.00;;;12.04
40968;BMP280;57377;45.130;6.038;2023-04-24T00:32:09;92101.44;;;11.00
40968;BMP280;57377;45.130;6.038;2023-04-24T00:34:35;92095.94;;;11.40
40968;BMP280;57377;45.130;6.038;2023-04-24T00:37:00;92090.91;;;11.14
40968;BMP280;57377;45.130;6.038;2023-04-24T00:39:26;92097.66;;;10.41
40968;BMP280;57377;45.130;6.038;2023-04-24T00:41:52;92102.13;;;10.62
40968;BMP280;57377;45.130;6.038;2023-04-24T00:44:18;92107.19;;;10.67
40968;BMP280;57377;45.130;6.038;2023-04-24T00:46:43;92098.22;;;10.52
40968;BMP280;57377;45.130;6.038;2023-04-24T00:49:09;92099.75;;;10.53
40968;BMP280;57377;45.130;6.038;2023-04-24T00:51:34;92092.91;;;10.78
40968;BMP280;57377;45.130;6.038;2023-04-24T00:54:00;92084.38;;;10.86
40968;BMP280;57377;45.130;6.038;2023-04-24T00:56:26;92092.19;;;10.64
40968;BMP280;57377;45.130;6.038;2023-04-24T00:58:52;92080.78;;;11.34
40968;BMP280;57377;45.130;6.038;2023-04-24T01:01:20;92080.38;;;11.19
40968;BMP280;57377;45.130;6.038;2023-04-24T01:03:46;92084.00;;;11.39
40968;BMP280;57377;45.130;6.038;2023-04-24T01:06:12;92077.63;;;11.45
40968;BMP280;57377;45.130;6.038;2023-04-24T01:08:39;92076.31;;;11.34
40968;BMP280;57377;45.130;6.038;2023-04-24T01:11:05;92080.91;;;10.99
40968;BMP280;57377;45.130;6.038;2023-04-24T01:13:31;92089.69;;;10.81
40968;BMP280;57377;45.130;6.038;2023-04-24T01:15:57;92080.63;;;11.00
40968;BMP280;57377;45.130;6.038;2023-04-24T01:18:22;92083.28;;;11.47
40968;BMP280;57377;45.130;6.038;2023-04-24T01:20:51;92087.69;;;11.38
40968;BMP280;57377;45.130;6.038;2023-04-24T01:23:18;92081.28;;;11.44
40968;BMP280;57377;45.130;6.038;2023-04-24T01:25:43;92082.94;;;11.95
40968;BMP280;57377;45.130;6.038;2023-04-24T01:28:09;92085.50;;;11.32
40968;BMP280;57377;45.130;6.038;2023-04-24T01:30:35;92088.56;;;10.95
40968;BMP280;57377;45.130;6.038;2023-04-24T01:33:01;92084.97;;;10.61
40968;BMP280;57377;45.130;6.038;2023-04-24T01:35:26;92087.34;;;10.71
40968;BMP280;57377;45.130;6.038;2023-04-24T01:37:52;92086.88;;;10.48
40968;BMP280;57377;45.130;6.038;2023-04-24T01:40:17;92087.22;;;10.76
40968;BMP280;57377;45.130;6.038;2023-04-24T01:42:42;92088.38;;;10.92
40968;BMP280;57377;45.130;6.038;2023-04-24T01:45:10;92083.16;;;11.52
40968;BMP280;57377;45.130;6.038;2023-04-24T01:47:36;92081.53;;;11.34
40968;BMP280;57377;45.130;6.038;2023-04-24T01:50:02;92079.41;;;11.36
40968;BMP280;57377;45.130;6.038;2023-04-24T01:52:27;92071.19;;;11.13
40968;BMP280;57377;45.130;6.038;2023-04-24T01:54:56;92077.63;;;10.63
40968;BMP280;57377;45.130;6.038;2023-04-24T01:57:24;92075.25;;;10.75
40968;BMP280;57377;45.130;6.038;2023-04-24T01:59:50;92085.75;;;10.40
40968;BMP280;57377;45.130;6.038;2023-04-24T02:02:16;92084.44;;;10.51
40968;BMP280;57377;45.130;6.038;2023-04-24T02:04:41;92084.75;;;10.50
40968;BMP280;57377;45.130;6.038;2023-04-24T02:07:07;92092.19;;;10.43
40968;BMP280;57377;45.130;6.038;2023-04-24T02:09:32;92095.03;;;10.76
40968;BMP280;57377;45.130;6.038;2023-04-24T02:11:58;92087.38;;;10.58
40968;BMP280;57377;45.130;6.038;2023-04-24T02:14:23;92084.84;;;10.66
40968;BMP280;57377;45.130;6.038;2023-04-24T02:16:48;92090.78;;;11.19
40968;BMP280;57377;45.130;6.038;2023-04-24T02:19:14;92080.09;;;11.58
40968;BMP280;57377;45.130;6.038;2023-04-24T02:21:39;92088.13;;;11.70
40968;BMP280;57377;45.130;6.038;2023-04-24T02:24:04;92096.66;;;11.24
40968;BMP280;57377;45.130;6.038;2023-04-24T02:26:30;92108.50;;;10.78
40968;BMP280;57377;45.130;6.038;2023-04-24T02:28:57;92101.63;;;10.39
40968;BMP280;57377;45.130;6.038;2023-04-24T02:31:22;92101.03;;;10.63
40968;BMP280;57377;45.130;6.038;2023-04-24T02:33:47;92106.94;;;10.77
40968;BMP280;57377;45.130;6.038;2023-04-24T02:36:13;92115.94;;;10.50
40968;BMP280;57377;45.130;6.038;2023-04-24T02:38:39;92118.44;;;10.55
40968;BMP280;57377;45.130;6.038;2023-04-24T02:41:04;92114.53;;;10.09
40968;BMP280;57377;45.130;6.038;2023-04-24T02:43:31;92120.53;;;10.31
40968;BMP280;57377;45.130;6.038;2023-04-24T02:45:57;92119.38;;;10.58
40968;BMP280;57377;45.130;6.038;2023-04-24T02:48:22;92116.06;;;10.45
40968;BMP280;57377;45.130;6.038;2023-04-24T02:50:48;92115.50;;;10.99
40968;BMP280;57377;45.130;6.038;2023-04-24T02:53:14;92114.16;;;10.80
40968;BMP280;57377;45.130;6.038;2023-04-24T02:55:39;92116.31;;;10.57
40968;BMP280;57377;45.130;6.038;2023-04-24T02:58:05;92109.91;;;10.41
40968;BMP280;57377;45.130;6.038;2023-04-24T03:00:31;92115.00;;;10.46
40968;BMP280;57377;45.130;6.038;2023-04-24T03:02:56;92116.50;;;10.47
40968;BMP280;57377;45.130;6.038;2023-04-24T03:05:22;92120.66;;;10.48
40968;BMP280;57377;45.130;6.038;2023-04-24T03:07:47;92133.34;;;10.27
40968;BMP280;57377;45.130;6.038;2023-04-24T03:10:12;92135.97;;;10.14
40968;BMP280;57377;45.130;6.038;2023-04-24T03:12:38;92127.22;;;10.10
40968;BMP280;57377;45.130;6.038;2023-04-24T03:15:04;92127.75;;;10.34
40968;BMP280;57377;45.130;6.038;2023-04-24T03:17:29;92130.00;;;10.49
40968;BMP280;57377;45.130;6.038;2023-04-24T03:19:55;92131.19;;;10.43
40968;BMP280;57377;45.130;6.038;2023-04-24T03:22:20;92126.50;;;10.96
40968;BMP280;57377;45.130;6.038;2023-04-24T03:24:45;92124.97;;;11.25
40968;BMP280;57377;45.130;6.038;2023-04-24T03:27:11;92123.63;;;11.28
40968;BMP280;57377;45.130;6.038;2023-04-24T03:29:36;92132.81;;;11.04
40968;BMP280;57377;45.130;6.038;2023-04-24T03:32:01;92117.72;;;10.84
40968;BMP280;57377;45.130;6.038;2023-04-24T03:34:27;92112.91;;;11.59
40968;BMP280;57377;45.130;6.038;2023-04-24T03:36:53;92112.97;;;11.16
40968;BMP280;57377;45.130;6.038;2023-04-24T03:39:18;92121.19;;;10.80
40968;BMP280;57377;45.130;6.038;2023-04-24T03:41:43;92130.88;;;11.39
40968;BMP280;57377;45.130;6.038;2023-04-24T03:44:09;92115.91;;;11.15
40968;BMP280;57377;45.130;6.038;2023-04-24T03:46:34;92110.03;;;10.79
40968;BMP280;57377;45.130;6.038;2023-04-24T03:49:00;92117.41;;;10.21
40968;BMP280;57377;45.130;6.038;2023-04-24T03:51:25;92117.25;;;10.60
40968;BMP280;57377;45.130;6.038;2023-04-24T03:53:53;92115.44;;;11.13
40968;BMP280;57377;45.130;6.038;2023-04-24T03:56:18;92117.22;;;11.34
40968;BMP280;57377;45.130;6.038;2023-04-24T03:58:43;92122.13;;;11.05
40968;BMP280;57377;45.130;6.038;2023-04-24T04:01:09;92124.06;;;11.21
40968;BMP280;57377;45.130;6.038;2023-04-24T04:03:35;92134.84;;;10.63
40968;BMP280;57377;45.130;6.038;2023-04-24T04:06:00;92129.09;;;10.31
40968;BMP280;57377;45.130;6.038;2023-04-24T04:08:26;92127.75;;;10.34
40968;BMP280;57377;45.130;6.038;2023-04-24T04:10:51;92132.19;;;10.20
40968;BMP280;57377;45.130;6.038;2023-04-24T04:13:16;92134.56;;;10.08
40968;BMP280;57377;45.130;6.038;2023-04-24T04:15:42;92124.22;;;10.30
40968;BMP280;57377;45.130;6.038;2023-04-24T04:18:07;92129.16;;;10.18
40968;BMP280;57377;45.130;6.038;2023-04-24T04:20:33;92132.28;;;10.28
40968;BMP280;57377;45.130;6.038;2023-04-24T04:22:58;92130.91;;;9.96
40968;BMP280;57377;45.130;6.038;2023-04-24T04:25:24;92125.59;;;10.01
40968;BMP280;57377;45.130;6.038;2023-04-24T04:27:49;92125.50;;;10.06
40968;BMP280;57377;45.130;6.038;2023-04-24T04:30:16;92135.91;;;10.41
40968;BMP280;57377;45.130;6.038;2023-04-24T04:32:41;92123.56;;;10.68
40968;BMP280;57377;45.130;6.038;2023-04-24T04:35:06;92136.19;;;10.39
40968;BMP280;57377;45.130;6.038;2023-04-24T04:37:32;92126.06;;;10.16
40968;BMP280;57377;45.130;6.038;2023-04-24T04:40:01;92128.69;;;10.38
40968;BMP280;57377;45.130;6.038;2023-04-24T04:42:31;92138.31;;;10.02
40968;BMP280;57377;45.130;6.038;2023-04-24T04:44:57;92143.41;;;9.81
40968;BMP280;57377;45.130;6.038;2023-04-24T04:47:23;92145.34;;;9.89
40968;BMP280;57377;45.130;6.038;2023-04-24T04:49:48;92147.78;;;10.20
40968;BMP280;57377;45.130;6.038;2023-04-24T04:52:14;92156.88;;;10.44
40968;BMP280;57377;45.130;6.038;2023-04-24T04:54:39;92167.97;;;10.50
40968;BMP280;57377;45.130;6.038;2023-04-24T04:57:05;92162.03;;;10.92
40968;BMP280;57377;45.130;6.038;2023-04-24T04:59:31;92150.00;;;11.05
40968;BMP280;57377;45.130;6.038;2023-04-24T05:01:56;92144.03;;;11.34
40968;BMP280;57377;45.130;6.038;2023-04-24T05:04:21;92148.19;;;10.49
40968;BMP280;57377;45.130;6.038;2023-04-24T05:06:47;92155.81;;;10.10
40968;BMP280;57377;45.130;6.038;2023-04-24T05:09:12;92154.28;;;10.44
40968;BMP280;57377;45.130;6.038;2023-04-24T05:11:37;92165.16;;;10.11
40968;BMP280;57377;45.130;6.038;2023-04-24T05:14:03;92162.28;;;9.99
40968;BMP280;57377;45.130;6.038;2023-04-24T05:16:28;92158.69;;;10.22
40968;BMP280;57377;45.130;6.038;2023-04-24T05:18:54;92165.38;;;10.01
40968;BMP280;57377;45.130;6.038;2023-04-24T05:21:19;92168.63;;;9.80
40968;BMP280;57377;45.130;6.038;2023-04-24T05:23:45;92173.66;;;10.73
40968;BMP280;57377;45.130;6.038;2023-04-24T05:26:10;92166.75;;;10.69
40968;BMP280;57377;45.130;6.038;2023-04-24T05:28:35;92174.56;;;10.56
40968;BMP280;57377;45.130;6.038;2023-04-24T05:31:02;92175.03;;;10.71
40968;BMP280;57377;45.130;6.038;2023-04-24T05:33:28;92182.72;;;10.97
40968;BMP280;57377;45.130;6.038;2023-04-24T05:35:53;92185.72;;;11.13
40968;BMP280;57377;45.130;6.038;2023-04-24T05:38:18;92192.09;;;10.85
40968;BMP280;57377;45.130;6.038;2023-04-24T05:40:45;92194.94;;;10.75
40968;BMP280;57377;45.130;6.038;2023-04-24T05:43:11;92190.44;;;10.67
40968;BMP280;57377;45.130;6.038;2023-04-24T05:45:37;92187.63;;;10.42
40968;BMP280;57377;45.130;6.038;2023-04-24T05:48:03;92182.41;;;10.77
40968;BMP280;57377;45.130;6.038;2023-04-24T05:50:29;92190.03;;;10.95
40968;BMP280;57377;45.130;6.038;2023-04-24T05:52:54;92188.53;;;11.24
40968;BMP280;57377;45.130;6.038;2023-04-24T05:55:19;92181.91;;;10.97
40968;BMP280;57377;45.130;6.038;2023-04-24T05:57:45;92190.66;;;10.57
40968;BMP280;57377;45.130;6.038;2023-04-24T06:00:11;92187.00;;;10.58
40968;BMP280;57377;45.130;6.038;2023-04-24T06:02:39;92193.50;;;10.34
40968;BMP280;57377;45.130;6.038;2023-04-24T06:05:05;92197.66;;;10.35
40968;BMP280;57377;45.130;6.038;2023-04-24T06:07:32;92198.25;;;10.67
40968;BMP280;57377;45.130;6.038;2023-04-24T06:09:57;92199.59;;;10.65
40968;BMP280;57377;45.130;6.038;2023-04-24T06:12:22;92196.03;;;10.26
40968;BMP280;57377;45.130;6.038;2023-04-24T06:14:48;92192.84;;;10.29
40968;BMP280;57377;45.130;6.038;2023-04-24T06:17:14;92193.41;;;10.39
40968;BMP280;57377;45.130;6.038;2023-04-24T06:19:39;92189.31;;;10.47
40968;BMP280;57377;45.130;6.038;2023-04-24T06:22:05;92185.13;;;10.94
40968;BMP280;57377;45.130;6.038;2023-04-24T06:24:30;92194.13;;;10.88
40968;BMP280;57377;45.130;6.038;2023-04-24T06:26:56;92191.75;;;10.78
40968;BMP280;57377;45.130;6.038;2023-04-24T06:29:24;92202.13;;;10.57
40968;BMP280;57377;45.130;6.038;2023-04-24T06:31:49;92204.38;;;10.50
40968;BMP280;57377;45.130;6.038;2023-04-24T06:34:14;92218.25;;;10.45
40968;BMP280;57377;45.130;6.038;2023-04-24T06:36:40;92213.78;;;10.59
40968;BMP280;57377;45.130;6.038;2023-04-24T06:39:05;92220.50;;;10.60
40968;BMP280;57377;45.130;6.038;2023-04-24T06:41:31;92219.91;;;11.20
40968;BMP280;57377;45.130;6.038;2023-04-24T06:43:56;92223.81;;;11.52
40968;BMP280;57377;45.130;6.038;2023-04-24T06:46:22;92225.34;;;11.31
40968;BMP280;57377;45.130;6.038;2023-04-24T06:48:51;92231.25;;;11.23
40968;BMP280;57377;45.130;6.038;2023-04-24T06:51:17;92229.38;;;11.16
40968;BMP280;57377;45.130;6.038;2023-04-24T06:53:43;92240.63;;;11.03
40968;BMP280;57377;45.130;6.038;2023-04-24T06:56:08;92240.34;;;11.26
40968;BMP280;57377;45.130;6.038;2023-04-24T06:58:34;92240.53;;;11.16
40968;BMP280;57377;45.130;6.038;2023-04-24T07:00:59;92237.13;;;11.07
40968;BMP280;57377;45.130;6.038;2023-04-24T07:03:24;92234.09;;;11.35
40968;BMP280;57377;45.130;6.038;2023-04-24T07:05:50;92235.66;;;11.36
40968;BMP280;57377;45.130;6.038;2023-04-24T07:08:16;92242.34;;;11.07
40968;BMP280;57377;45.130;6.038;2023-04-24T07:10:43;92247.91;;;11.14
40968;BMP280;57377;45.130;6.038;2023-04-24T07:13:08;92247.34;;;11.04
40968;BMP280;57377;45.130;6.038;2023-04-24T07:15:34;92247.50;;;11.42
40968;BMP280;57377;45.130;6.038;2023-04-24T07:18:00;92250.09;;;11.42
40968;BMP280;57377;45.130;6.038;2023-04-24T07:20:25;92251.88;;;10.77
40968;BMP280;57377;45.130;6.038;2023-04-24T07:22:51;92246.66;;;10.90
40968;BMP280;57377;45.130;6.038;2023-04-24T07:25:17;92248.19;;;11.13
40968;BMP280;57377;45.130;6.038;2023-04-24T07:27:42;92249.69;;;11.27
40968;BMP280;57377;45.130;6.038;2023-04-24T07:30:08;92248.84;;;11.18
40968;BMP280;57377;45.130;6.038;2023-04-24T07:32:34;92249.31;;;10.98
40968;BMP280;57377;45.130;6.038;2023-04-24T07:35:00;92246.19;;;11.10
40968;BMP280;57377;45.130;6.038;2023-04-24T07:37:25;92242.63;;;11.27
40968;BMP280;57377;45.130;6.038;2023-04-24T07:39:51;92241.38;;;11.25
40968;BMP280;57377;45.130;6.038;2023-04-24T07:42:16;92242.22;;;11.34
40968;BMP280;57377;45.130;6.038;2023-04-24T07:44:42;92247.00;;;11.40
40968;BMP280;57377;45.130;6.038;2023-04-24T07:47:07;92245.44;;;11.31
40968;BMP280;57377;45.130;6.038;2023-04-24T07:49:33;92254.13;;;11.48
40968;BMP280;57377;45.130;6.038;2023-04-24T07:52:00;92255.41;;;11.59
40968;BMP280;57377;45.130;6.038;2023-04-24T07:54:26;92264.66;;;11.65
40968;BMP280;57377;45.130;6.038;2023-04-24T07:56:52;92266.41;;;11.34
40968;BMP280;57377;45.130;6.038;2023-04-24T07:59:17;92269.63;;;11.31
40968;BMP280;57377;45.130;6.038;2023-04-24T08:01:43;92263.78;;;11.69
40968;BMP280;57377;45.130;6.038;2023-04-24T08:04:08;92267.06;;;11.40
40968;BMP280;57377;45.130;6.038;2023-04-24T08:06:33;92279.59;;;11.51
40968;BMP280;57377;45.130;6.038;2023-04-24T08:08:59;92289.25;;;11.37
40968;BMP280;57377;45.130;6.038;2023-04-24T08:11:25;92285.13;;;11.15
40968;BMP280;57377;45.130;6.038;2023-04-24T08:13:51;92291.50;;;11.09
40968;BMP280;57377;45.130;6.038;2023-04-24T08:16:16;92297.19;;;11.32
40968;BMP280;57377;45.130;6.038;2023-04-24T08:18:41;92298.41;;;11.48
40968;BMP280;57377;45.130;6.038;2023-04-24T08:21:07;92289.84;;;11.34
40968;BMP280;57377;45.130;6.038;2023-04-24T08:23:32;92290.84;;;11.60
40968;BMP280;57377;45.130;6.038;2023-04-24T08:25:57;92294.84;;;11.66
40968;BMP280;57377;45.130;6.038;2023-04-24T08:28:23;92289.44;;;11.84
40968;BMP280;57377;45.130;6.038;2023-04-24T08:30:48;92292.47;;;11.78
40968;BMP280;57377;45.130;6.038;2023-04-24T08:33:19;92294.75;;;11.49
40968;BMP280;57377;45.130;6.038;2023-04-24T08:35:45;92290.25;;;11.41
40968;BMP280;57377;45.130;6.038;2023-04-24T08:38:10;92284.47;;;12.04
40968;BMP280;57377;45.130;6.038;2023-04-24T08:40:36;92291.22;;;11.75
40968;BMP280;57377;45.130;6.038;2023-04-24T08:43:03;92289.13;;;11.85
40968;BMP280;57377;45.130;6.038;2023-04-24T08:45:29;92291.91;;;11.89
40968;BMP280;57377;45.130;6.038;2023-04-24T08:47:55;92291.66;;;11.99
40968;BMP280;57377;45.130;6.038;2023-04-24T08:50:21;92289.22;;;12.41
40968;BMP280;57377;45.130;6.038;2023-04-24T08:52:50;92289.22;;;12.41
40968;BMP280;57377;45.130;6.038;2023-04-24T08:55:16;92284.94;;;12.45
40968;BMP280;57377;45.130;6.038;2023-04-24T08:57:45;92276.38;;;12.14
40968;BMP280;57377;45.130;6.038;2023-04-24T09:00:10;92283.97;;;12.32
40968;BMP280;57377;45.130;6.038;2023-04-24T09:02:36;92291.09;;;12.49
40968;BMP280;57377;45.130;6.038;2023-04-24T09:05:02;92290.00;;;12.88
40968;BMP280;57377;45.130;6.038;2023-04-24T09:07:30;92288.47;;;12.40
40968;BMP280;57377;45.130;6.038;2023-04-24T09:09:57;92293.59;;;12.15
40968;BMP280;57377;45.130;6.038;2023-04-24T09:12:23;92291.69;;;12.46
40968;BMP280;57377;45.130;6.038;2023-04-24T09:14:49;92281.59;;;12.52
40968;BMP280;57377;45.130;6.038;2023-04-24T09:17:15;92287.69;;;12.40
40968;BMP280;57377;45.130;6.038;2023-04-24T09:19:41;92293.25;;;12.47
40968;BMP280;57377;45.130;6.038;2023-04-24T09:22:08;92298.31;;;12.51
40968;BMP280;57377;45.130;6.038;2023-04-24T09:24:34;92293.00;;;12.73
40968;BMP280;57377;45.130;6.038;2023-04-24T09:27:00;92293.16;;;12.68
40968;BMP280;57377;45.130;6.038;2023-04-24T09:29:29;92292.63;;;12.49
40968;BMP280;57377;45.130;6.038;2023-04-24T09:31:55;92290.78;;;12.42
40968;BMP280;57377;45.130;6.038;2023-04-24T09:34:25;92287.63;;;12.23
40968;BMP280;57377;45.130;6.038;2023-04-24T09:36:51;92284.13;;;12.36
40968;BMP280;57377;45.130;6.038;2023-04-24T09:39:17;92283.84;;;12.37
40968;BMP280;57377;45.130;6.038;2023-04-24T09:41:52;92277.22;;;12.78
40968;BMP280;57377;45.130;6.038;2023-04-24T09:44:22;92292.41;;;12.76
40968;BMP280;57377;45.130;6.038;2023-04-24T09:46:55;92270.09;;;12.53
40968;BMP280;57377;45.130;6.038;2023-04-24T09:49:31;92278.28;;;12.22
40968;BMP280;57377;45.130;6.038;2023-04-24T09:52:05;92278.81;;;12.49
40968;BMP280;57377;45.130;6.038;2023-04-24T09:54:30;92275.84;;;12.34
40968;BMP280;57377;45.130;6.038;2023-04-24T09:56:56;92278.97;;;12.52
40968;BMP280;57377;45.130;6.038;2023-04-24T09:59:22;92277.16;;;12.61
40968;BMP280;57377;45.130;6.038;2023-04-24T10:01:48;92264.50;;;12.85
40968;BMP280;57377;45.130;6.038;2023-04-24T10:04:21;92279.97;;;12.82
40968;BMP280;57377;45.130;6.038;2023-04-24T10:06:49;92267.75;;;13.07
40968;BMP280;57377;45.130;6.038;2023-04-24T10:09:15;92269.13;;;13.21
40968;BMP280;57377;45.130;6.038;2023-04-24T10:11:45;92260.19;;;13.47
40968;BMP280;57377;45.130;6.038;2023-04-24T10:14:15;92262.31;;;13.62
40968;BMP280;57377;45.130;6.038;2023-04-24T10:16:42;92254.47;;;13.54
40968;BMP280;57377;45.130;6.038;2023-04-24T10:19:07;92255.25;;;13.71
40968;BMP280;57377;45.130;6.038;2023-04-24T10:21:34;92251.03;;;13.95
40968;BMP280;57377;45.130;6.038;2023-04-24T10:24:00;92245.91;;;14.15
40968;BMP280;57377;45.130;6.038;2023-04-24T10:26:28;92234.63;;;14.23
40968;BMP280;57377;45.130;6.038;2023-04-24T10:28:57;92232.72;;;14.41
40968;BMP280;57377;45.130;6.038;2023-04-24T10:31:22;92232.19;;;14.18
40968;BMP280;57377;45.130;6.038;2023-04-24T10:33:49;92227.75;;;14.19
40968;BMP280;57377;45.130;6.038;2023-04-24T10:36:17;92234.53;;;14.40
40968;BMP280;57377;45.130;6.038;2023-04-24T10:38:43;92232.19;;;14.55
40968;BMP280;57377;45.130;6.038;2023-04-24T10:41:11;92227.81;;;14.59
40968;BMP280;57377;45.130;6.038;2023-04-24T10:43:48;92227.41;;;14.57
40968;BMP280;57377;45.130;6.038;2023-04-24T10:46:22;92225.75;;;14.44
40968;BMP280;57377;45.130;6.038;2023-04-24T10:48:54;92230.31;;;14.56
40968;BMP280;57377;45.130;6.038;2023-04-24T10:51:22;92231.53;;;14.58
40968;BMP280;57377;45.130;6.038;2023-04-24T10:53:50;92223.78;;;14.70
40968;BMP280;57377;45.130;6.038;2023-04-24T10:56:16;92231.78;;;14.94
40968;BMP280;57377;45.130;6.038;2023-04-24T10:58:49;92231.97;;;14.89
40968;BMP280;57377;45.130;6.038;2023-04-24T11:01:25;92229.00;;;14.70
40968;BMP280;57377;45.130;6.038;2023-04-24T11:03:55;92225.72;;;15.02
40968;BMP280;57377;45.130;6.038;2023-04-24T11:06:34;92219.03;;;14.64
40968;BMP280;57377;45.130;6.038;2023-04-24T11:09:08;92231.19;;;14.88
40968;BMP280;57377;45.130;6.038;2023-04-24T11:11:36;92220.72;;;15.08
40968;BMP280;57377;45.130;6.038;2023-04-24T11:14:04;92217.22;;;14.84
40968;BMP280;57377;45.130;6.038;2023-04-24T11:16:37;92222.91;;;15.07
40968;BMP280;57377;45.130;6.038;2023-04-24T11:19:06;92218.06;;;15.17
40968;BMP280;57377;45.130;6.038;2023-04-24T11:21:39;92211.31;;;14.67
40968;BMP280;57377;45.130;6.038;2023-04-24T11:24:39;92204.38;;;15.11
40968;BMP280;57377;45.130;6.038;2023-04-24T11:27:07;92207.00;;;15.11
40968;BMP280;57377;45.130;6.038;2023-04-24T11:32:55;92220.72;;;15.08
40968;BMP280;57377;45.130;6.038;2023-04-24T11:35:26;92220.28;;;15.27
40968;BMP280;57377;45.130;6.038;2023-04-24T11:37:54;92212.66;;;15.54
40968;BMP280;57377;45.130;6.038;2023-04-24T11:40:21;92213.53;;;15.58
40968;BMP280;57377;45.130;6.038;2023-04-24T11:42:50;92216.03;;;15.22
40968;BMP280;57377;45.130;6.038;2023-04-24T11:45:27;92201.44;;;15.33
40968;BMP280;57377;45.130;6.038;2023-04-24T11:47:53;92201.44;;;15.77
40968;BMP280;57377;45.130;6.038;2023-04-24T11:50:21;92209.50;;;15.60
40968;BMP280;57377;45.130;6.038;2023-04-24T11:52:48;92214.94;;;15.55
40968;BMP280;57377;45.130;6.038;2023-04-24T11:57:38;92202.56;;;15.44
40968;BMP280;57377;45.130;6.038;2023-04-24T12:00:04;92195.53;;;15.36
40968;BMP280;57377;45.130;6.038;2023-04-24T12:02:30;92205.00;;;15.49
40968;BMP280;57377;45.130;6.038;2023-04-24T12:04:56;92202.06;;;15.30
40968;BMP280;57377;45.130;6.038;2023-04-24T12:07:22;92213.16;;;15.47
40968;BMP280;57377;45.130;6.038;2023-04-24T12:09:54;92206.34;;;15.35
40968;BMP280;57377;45.130;6.038;2023-04-24T12:12:20;92203.16;;;15.29
40968;BMP280;57377;45.130;6.038;2023-04-24T12:14:51;92213.81;;;15.76
40968;BMP280;57377;45.130;6.038;2023-04-24T12:17:17;92209.69;;;15.87
40968;BMP280;57377;45.130;6.038;2023-04-24T12:19:47;92192.13;;;15.68
40968;BMP280;57377;45.130;6.038;2023-04-24T12:22:13;92198.09;;;15.44
40968;BMP280;57377;45.130;6.038;2023-04-24T12:25:03;92199.22;;;15.55
40968;BMP280;57377;45.130;6.038;2023-04-24T12:27:33;92191.06;;;15.69
40968;BMP280;57377;45.130;6.038;2023-04-24T12:30:00;92208.41;;;15.61
40968;BMP280;57377;45.130;6.038;2023-04-24T12:32:26;92201.69;;;15.84
40968;BMP280;57377;45.130;6.038;2023-04-24T12:34:52;92196.69;;;15.91
40968;BMP280;57377;45.130;6.038;2023-04-24T12:37:18;92202.75;;;16.15
40968;BMP280;57377;45.130;6.038;2023-04-24T12:42:29;92210.97;;;15.81
40968;BMP280;57377;45.130;6.038;2023-04-24T12:45:02;92203.31;;;15.76
40968;BMP280;57377;45.130;6.038;2023-04-24T12:47:28;92198.53;;;15.90
40968;BMP280;57377;45.130;6.038;2023-04-24T12:49:54;92204.25;;;16.04
40968;BMP280;57377;45.130;6.038;2023-04-24T12:52:21;92211.69;;;16.02
40968;BMP280;57377;45.130;6.038;2023-04-24T12:54:47;92222.03;;;15.87
40968;BMP280;57377;45.130;6.038;2023-04-24T12:57:13;92204.66;;;16.06
40968;BMP280;57377;45.130;6.038;2023-04-24T12:59:38;92210.78;;;15.98
40968;BMP280;57377;45.130;6.038;2023-04-24T13:02:04;92207.59;;;15.81
40968;BMP280;57377;45.130;6.038;2023-04-24T13:04:30;92198.84;;;16.21
40968;BMP280;57377;45.130;6.038;2023-04-24T13:06:55;92205.28;;;16.23
40968;BMP280;57377;45.130;6.038;2023-04-24T13:09:21;92209.28;;;16.09
40968;BMP280;57377;45.130;6.038;2023-04-24T13:11:46;92200.47;;;16.25
40968;BMP280;57377;45.130;6.038;2023-04-24T13:14:12;92204.50;;;16.35
40968;BMP280;57377;45.130;6.038;2023-04-24T13:16:37;92203.22;;;16.40
40968;BMP280;57377;45.130;6.038;2023-04-24T13:19:02;92192.34;;;16.66
40968;BMP280;57377;45.130;6.038;2023-04-24T13:21:29;92201.78;;;16.55
40968;BMP280;57377;45.130;6.038;2023-04-24T13:23:55;92186.66;;;16.64
40968;BMP280;57377;45.130;6.038;2023-04-24T13:26:21;92190.75;;;16.49
40968;BMP280;57377;45.130;6.038;2023-04-24T13:28:46;92182.53;;;16.63
40968;BMP280;57377;45.130;6.038;2023-04-24T13:31:11;92186.78;;;16.79
40968;BMP280;57377;45.130;6.038;2023-04-24T13:33:37;92184.59;;;16.81
40968;BMP280;57377;45.130;6.038;2023-04-24T13:36:02;92178.31;;;16.85
40968;BMP280;57377;45.130;6.038;2023-04-24T13:38:28;92188.97;;;16.41
40968;BMP280;57377;45.130;6.038;2023-04-24T13:40:53;92175.59;;;16.82
40968;BMP280;57377;45.130;6.038;2023-04-24T13:43:19;92167.28;;;16.80
40968;BMP280;57377;45.130;6.038;2023-04-24T13:45:44;92163.34;;;16.74
40968;BMP280;57377;45.130;6.038;2023-04-24T13:48:09;92169.06;;;16.64
40968;BMP280;57377;45.130;6.038;2023-04-24T13:50:35;92165.25;;;16.62
40968;BMP280;57377;45.130;6.038;2023-04-24T13:53:01;92150.50;;;16.96
40968;BMP280;57377;45.130;6.038;2023-04-24T13:55:27;92166.34;;;17.00
40968;BMP280;57377;45.130;6.038;2023-04-24T13:57:52;92161.16;;;16.76
40968;BMP280;57377;45.130;6.038;2023-04-24T14:00:20;92154.31;;;16.99
40968;BMP280;57377;45.130;6.038;2023-04-24T14:02:46;92142.75;;;16.88
40968;BMP280;57377;45.130;6.038;2023-04-24T14:05:12;92135.00;;;17.18
40968;BMP280;57377;45.130;6.038;2023-04-24T14:07:39;92134.47;;;17.13
40968;BMP280;57377;45.130;6.038;2023-04-24T14:10:05;92132.28;;;17.15
40968;BMP280;57377;45.130;6.038;2023-04-24T14:12:30;92130.22;;;16.97